sensor_id;sensor_type;location;lat;lon;timestamp;P1;durP1;ratioP1;P2;durP2;ratioP2
13408;SDS011;6775;49.574;11.170;2023-08-30T00:00:41;1.47;;;1.37;;
13408;SDS011;6775;49.574;11.170;2023-08-30T00:03:09;1.00;;;1.00;;
13408;SDS011;6775;49.574;11.170;2023-08-30T00:05:38;1.87;;;1.33;;
13408;SDS011;6775;49.574;11.170;2023-08-30T00:08:07;1.33;;;1.23;;
13408;SDS011;6775;49.574;11.170;2023-08-30T00:10:36;1.43;;;1.33;;
13408;SDS011;6775;49.574;11.170;2023-08-30T00:13:06;3.40;;;1.43;;
13408;SDS011;6775;49.574;11.170;2023-08-30T00:15:34;1.50;;;1.40;;
13408;SDS011;6775;49.574;11.170;2023-08-30T00:18:02;1.40;;;1.30;;
13408;SDS011;6775;49.574;11.170;2023-08-30T00:20:31;1.33;;;1.20;;
13408;SDS011;6775;49.574;11.170;2023-08-30T00:22:59;1.50;;;1.33;;
13408;SDS011;6775;49.574;11.170;2023-08-30T00:25:27;1.50;;;1.40;;
13408;SDS011;6775;49.574;11.170;2023-08-30T00:27:55;1.30;;;1.20;;
13408;SDS011;6775;49.574;11.170;2023-08-30T00:30:25;1.60;;;1.50;;
13408;SDS011;6775;49.574;11.170;2023-08-30T00:32:53;1.57;;;1.47;;
13408;SDS011;6775;49.574;11.170;2023-08-30T00:35:21;1.40;;;1.30;;
13408;SDS011;6775;49.574;11.170;2023-08-30T00:37:49;1.10;;;1.10;;
13408;SDS011;6775;49.574;11.170;2023-08-30T00:40:17;1.30;;;1.20;;
13408;SDS011;6775;49.574;11.170;2023-08-30T00:42:45;1.70;;;1.60;;
13408;SDS011;6775;49.574;11.170;2023-08-30T00:45:13;1.90;;;1.80;;
13408;SDS011;6775;49.574;11.170;2023-08-30T00:47:43;1.70;;;1.60;;
13408;SDS011;6775;49.574;11.170;2023-08-30T00:50:11;2.23;;;1.70;;
13408;SDS011;6775;49.574;11.170;2023-08-30T00:52:40;2.77;;;1.33;;
13408;SDS011;6775;49.574;11.170;2023-08-30T00:55:09;3.20;;;1.50;;
13408;SDS011;6775;49.574;11.170;2023-08-30T00:57:37;3.03;;;1.50;;
13408;SDS011;6775;49.574;11.170;2023-08-30T01:00:06;1.47;;;1.37;;
13408;SDS011;6775;49.574;11.170;2023-08-30T01:02:37;1.50;;;1.40;;
13408;SDS011;6775;49.574;11.170;2023-08-30T01:05:08;1.37;;;1.27;;
13408;SDS011;6775;49.574;11.170;2023-08-30T01:07:37;1.50;;;1.40;;
13408;SDS011;6775;49.574;11.170;2023-08-30T01:10:05;1.60;;;1.50;;
13408;SDS011;6775;49.574;11.170;2023-08-30T01:12:36;1.70;;;1.57;;
13408;SDS011;6775;49.574;11.170;2023-08-30T01:15:13;1.73;;;1.63;;
13408;SDS011;6775;49.574;11.170;2023-08-30T01:17:47;2.00;;;1.90;;
13408;SDS011;6775;49.574;11.170;2023-08-30T01:20:19;1.77;;;1.67;;
13408;SDS011;6775;49.574;11.170;2023-08-30T01:22:54;1.80;;;1.70;;
13408;SDS011;6775;49.574;11.170;2023-08-30T01:25:33;1.70;;;1.60;;
13408;SDS011;6775;49.574;11.170;2023-08-30T01:28:14;1.70;;;1.60;;
13408;SDS011;6775;49.574;11.170;2023-08-30T01:30:48;1.97;;;1.87;;
13408;SDS011;6775;49.574;11.170;2023-08-30T01:33:17;2.20;;;2.00;;
13408;SDS011;6775;49.574;11.170;2023-08-30T01:35:46;3.07;;;2.00;;
13408;SDS011;6775;49.574;11.170;2023-08-30T01:38:14;2.30;;;2.10;;
13408;SDS011;6775;49.574;11.170;2023-08-30T01:40:43;2.77;;;2.57;;
13408;SDS011;6775;49.574;11.170;2023-08-30T01:43:15;2.73;;;2.40;;
13408;SDS011;6775;49.574;11.170;2023-08-30T01:45:44;2.63;;;2.43;;
13408;SDS011;6775;49.574;11.170;2023-08-30T01:48:12;2.60;;;2.40;;
13408;SDS011;6775;49.574;11.170;2023-08-30T01:50:43;2.43;;;2.23;;
13408;SDS011;6775;49.574;11.170;2023-08-30T01:53:12;3.70;;;2.80;;
13408;SDS011;6775;49.574;11.170;2023-08-30T01:55:42;2.80;;;2.23;;
13408;SDS011;6775;49.574;11.170;2023-08-30T01:58:11;3.00;;;2.20;;
13408;SDS011;6775;49.574;11.170;2023-08-30T02:00:40;2.10;;;1.80;;
13408;SDS011;6775;49.574;11.170;2023-08-30T02:03:09;1.87;;;1.77;;
13408;SDS011;6775;49.574;11.170;2023-08-30T02:05:39;1.80;;;1.70;;
13408;SDS011;6775;49.574;11.170;2023-08-30T02:08:17;2.13;;;1.90;;
13408;SDS011;6775;49.574;11.170;2023-08-30T02:10:51;2.00;;;1.90;;
13408;SDS011;6775;49.574;11.170;2023-08-30T02:13:29;2.50;;;2.30;;
13408;SDS011;6775;49.574;11.170;2023-08-30T02:16:00;2.10;;;1.90;;
13408;SDS011;6775;49.574;11.170;2023-08-30T02:18:29;2.53;;;2.30;;
13408;SDS011;6775;49.574;11.170;2023-08-30T02:21:00;3.87;;;2.77;;
13408;SDS011;6775;49.574;11.170;2023-08-30T02:23:28;2.60;;;2.40;;
13408;SDS011;6775;49.574;11.170;2023-08-30T02:25:56;2.20;;;2.00;;
13408;SDS011;6775;49.574;11.170;2023-08-30T02:28:24;2.30;;;2.10;;
13408;SDS011;6775;49.574;11.170;2023-08-30T02:30:52;2.53;;;2.33;;
13408;SDS011;6775;49.574;11.170;2023-08-30T02:33:22;1.93;;;1.83;;
13408;SDS011;6775;49.574;11.170;2023-08-30T02:35:50;1.90;;;1.80;;
13408;SDS011;6775;49.574;11.170;2023-08-30T02:38:20;3.37;;;2.10;;
13408;SDS011;6775;49.574;11.170;2023-08-30T02:40:48;1.93;;;1.83;;
13408;SDS011;6775;49.574;11.170;2023-08-30T02:43:16;1.63;;;1.53;;
13408;SDS011;6775;49.574;11.170;2023-08-30T02:45:44;2.10;;;2.00;;
13408;SDS011;6775;49.574;11.170;2023-08-30T02:48:12;2.10;;;1.90;;
13408;SDS011;6775;49.574;11.170;2023-08-30T02:50:42;2.50;;;2.00;;
13408;SDS011;6775;49.574;11.170;2023-08-30T02:53:10;3.07;;;1.90;;
13408;SDS011;6775;49.574;11.170;2023-08-30T02:55:38;4.77;;;1.87;;
13408;SDS011;6775;49.574;11.170;2023-08-30T02:58:06;2.47;;;2.27;;
13408;SDS011;6775;49.574;11.170;2023-08-30T03:00:35;2.23;;;1.97;;
13408;SDS011;6775;49.574;11.170;2023-08-30T03:03:03;2.20;;;1.90;;
13408;SDS011;6775;49.574;11.170;2023-08-30T03:05:31;2.37;;;2.17;;
13408;SDS011;6775;49.574;11.170;2023-08-30T03:08:01;2.20;;;2.00;;
13408;SDS011;6775;49.574;11.170;2023-08-30T03:10:29;2.43;;;2.23;;
13408;SDS011;6775;49.574;11.170;2023-08-30T03:12:58;2.97;;;2.67;;
13408;SDS011;6775;49.574;11.170;2023-08-30T03:15:26;2.40;;;2.20;;
13408;SDS011;6775;49.574;11.170;2023-08-30T03:17:54;2.57;;;2.30;;
13408;SDS011;6775;49.574;11.170;2023-08-30T03:20:22;2.70;;;2.50;;
13408;SDS011;6775;49.574;11.170;2023-08-30T03:22:50;2.50;;;2.30;;
13408;SDS011;6775;49.574;11.170;2023-08-30T03:25:19;2.67;;;2.27;;
13408;SDS011;6775;49.574;11.170;2023-08-30T03:27:47;2.37;;;2.20;;
13408;SDS011;6775;49.574;11.170;2023-08-30T03:30:15;2.23;;;2.10;;
13408;SDS011;6775;49.574;11.170;2023-08-30T03:32:43;1.90;;;1.80;;
13408;SDS011;6775;49.574;11.170;2023-08-30T03:35:11;2.87;;;2.10;;
13408;SDS011;6775;49.574;11.170;2023-08-30T03:37:41;1.90;;;1.80;;
13408;SDS011;6775;49.574;11.170;2023-08-30T03:40:09;1.70;;;1.60;;
13408;SDS011;6775;49.574;11.170;2023-08-30T03:42:39;2.43;;;2.23;;
13408;SDS011;6775;49.574;11.170;2023-08-30T03:45:08;2.20;;;2.00;;
13408;SDS011;6775;49.574;11.170;2023-08-30T03:47:36;2.50;;;2.30;;
13408;SDS011;6775;49.574;11.170;2023-08-30T03:50:05;3.83;;;2.40;;
13408;SDS011;6775;49.574;11.170;2023-08-30T03:52:35;2.97;;;2.47;;
13408;SDS011;6775;49.574;11.170;2023-08-30T03:55:03;2.50;;;2.30;;
13408;SDS011;6775;49.574;11.170;2023-08-30T03:57:31;2.70;;;2.50;;
13408;SDS011;6775;49.574;11.170;2023-08-30T04:00:02;2.60;;;2.40;;
13408;SDS011;6775;49.574;11.170;2023-08-30T04:02:31;3.40;;;2.43;;
13408;SDS011;6775;49.574;11.170;2023-08-30T04:04:59;2.67;;;2.47;;
13408;SDS011;6775;49.574;11.170;2023-08-30T04:07:27;3.87;;;3.33;;
13408;SDS011;6775;49.574;11.170;2023-08-30T04:09:55;3.53;;;3.23;;
13408;SDS011;6775;49.574;11.170;2023-08-30T04:12:24;4.43;;;3.83;;
13408;SDS011;6775;49.574;11.170;2023-08-30T04:14:52;4.50;;;4.10;;
13408;SDS011;6775;49.574;11.170;2023-08-30T04:17:21;3.87;;;3.50;;
13408;SDS011;6775;49.574;11.170;2023-08-30T04:19:51;2.97;;;2.50;;
13408;SDS011;6775;49.574;11.170;2023-08-30T04:22:19;3.10;;;2.90;;
13408;SDS011;6775;49.574;11.170;2023-08-30T04:24:48;2.70;;;2.50;;
13408;SDS011;6775;49.574;11.170;2023-08-30T04:27:16;3.83;;;3.53;;
13408;SDS011;6775;49.574;11.170;2023-08-30T04:29:44;4.27;;;3.27;;
13408;SDS011;6775;49.574;11.170;2023-08-30T04:32:13;5.67;;;5.17;;
13408;SDS011;6775;49.574;11.170;2023-08-30T04:34:43;5.40;;;4.90;;
13408;SDS011;6775;49.574;11.170;2023-08-30T04:37:11;6.03;;;5.43;;
13408;SDS011;6775;49.574;11.170;2023-08-30T04:39:39;5.57;;;5.07;;
13408;SDS011;6775;49.574;11.170;2023-08-30T04:42:07;5.70;;;5.10;;
13408;SDS011;6775;49.574;11.170;2023-08-30T04:44:35;6.80;;;6.10;;
13408;SDS011;6775;49.574;11.170;2023-08-30T04:47:03;6.63;;;6.03;;
13408;SDS011;6775;49.574;11.170;2023-08-30T04:49:32;6.67;;;5.80;;
13408;SDS011;6775;49.574;11.170;2023-08-30T04:52:01;5.10;;;4.60;;
13408;SDS011;6775;49.574;11.170;2023-08-30T04:54:29;5.50;;;5.00;;
13408;SDS011;6775;49.574;11.170;2023-08-30T04:56:57;5.30;;;4.80;;
13408;SDS011;6775;49.574;11.170;2023-08-30T04:59:25;7.10;;;6.40;;
13408;SDS011;6775;49.574;11.170;2023-08-30T05:01:53;5.47;;;4.83;;
13408;SDS011;6775;49.574;11.170;2023-08-30T05:04:21;5.53;;;5.03;;
13408;SDS011;6775;49.574;11.170;2023-08-30T05:06:49;5.10;;;4.70;;
13408;SDS011;6775;49.574;11.170;2023-08-30T05:09:18;6.53;;;5.93;;
13408;SDS011;6775;49.574;11.170;2023-08-30T05:11:48;4.83;;;4.43;;
13408;SDS011;6775;49.574;11.170;2023-08-30T05:14:16;4.37;;;3.97;;
13408;SDS011;6775;49.574;11.170;2023-08-30T05:16:44;5.60;;;5.00;;
13408;SDS011;6775;49.574;11.170;2023-08-30T05:19:17;3.50;;;3.20;;
13408;SDS011;6775;49.574;11.170;2023-08-30T05:21:45;4.87;;;4.47;;
13408;SDS011;6775;49.574;11.170;2023-08-30T05:24:13;5.07;;;4.33;;
13408;SDS011;6775;49.574;11.170;2023-08-30T05:26:42;5.87;;;5.10;;
13408;SDS011;6775;49.574;11.170;2023-08-30T05:29:13;5.20;;;4.70;;
13408;SDS011;6775;49.574;11.170;2023-08-30T05:31:41;4.43;;;4.00;;
13408;SDS011;6775;49.574;11.170;2023-08-30T05:34:10;4.13;;;3.73;;
13408;SDS011;6775;49.574;11.170;2023-08-30T05:36:38;7.00;;;6.07;;
13408;SDS011;6775;49.574;11.170;2023-08-30T05:39:06;4.03;;;3.73;;
13408;SDS011;6775;49.574;11.170;2023-08-30T05:41:34;9.03;;;5.13;;
13408;SDS011;6775;49.574;11.170;2023-08-30T05:44:04;5.83;;;5.23;;
13408;SDS011;6775;49.574;11.170;2023-08-30T05:46:33;6.77;;;6.17;;
13408;SDS011;6775;49.574;11.170;2023-08-30T05:49:01;8.67;;;7.10;;
13408;SDS011;6775;49.574;11.170;2023-08-30T05:51:30;9.47;;;7.77;;
13408;SDS011;6775;49.574;11.170;2023-08-30T05:53:58;6.40;;;5.37;;
13408;SDS011;6775;49.574;11.170;2023-08-30T05:56:26;13.00;;;9.87;;
13408;SDS011;6775;49.574;11.170;2023-08-30T05:58:54;8.17;;;6.20;;
13408;SDS011;6775;49.574;11.170;2023-08-30T06:01:23;7.20;;;6.37;;
13408;SDS011;6775;49.574;11.170;2023-08-30T06:03:52;13.03;;;9.20;;
13408;SDS011;6775;49.574;11.170;2023-08-30T06:06:20;16.23;;;11.07;;
13408;SDS011;6775;49.574;11.170;2023-08-30T06:08:49;15.80;;;12.53;;
13408;SDS011;6775;49.574;11.170;2023-08-30T06:11:17;13.80;;;11.30;;
13408;SDS011;6775;49.574;11.170;2023-08-30T06:13:44;14.13;;;11.83;;
13408;SDS011;6775;49.574;11.170;2023-08-30T06:16:12;10.20;;;8.37;;
13408;SDS011;6775;49.574;11.170;2023-08-30T06:18:42;11.60;;;9.93;;
13408;SDS011;6775;49.574;11.170;2023-08-30T06:21:10;16.77;;;12.37;;
13408;SDS011;6775;49.574;11.170;2023-08-30T06:23:38;13.63;;;10.03;;
13408;SDS011;6775;49.574;11.170;2023-08-30T06:26:06;10.63;;;8.97;;
13408;SDS011;6775;49.574;11.170;2023-08-30T06:28:34;14.57;;;11.43;;
13408;SDS011;6775;49.574;11.170;2023-08-30T06:31:04;13.07;;;10.70;;
13408;SDS011;6775;49.574;11.170;2023-08-30T06:33:32;13.10;;;11.27;;
13408;SDS011;6775;49.574;11.170;2023-08-30T06:36:01;10.00;;;8.73;;
13408;SDS011;6775;49.574;11.170;2023-08-30T06:38:29;11.53;;;9.37;;
13408;SDS011;6775;49.574;11.170;2023-08-30T06:40:57;11.30;;;9.63;;
13408;SDS011;6775;49.574;11.170;2023-08-30T06:43:25;8.30;;;7.50;;
13408;SDS011;6775;49.574;11.170;2023-08-30T06:45:53;10.70;;;9.03;;
13408;SDS011;6775;49.574;11.170;2023-08-30T06:48:25;8.63;;;6.93;;
13408;SDS011;6775;49.574;11.170;2023-08-30T06:50:56;9.73;;;8.73;;
13408;SDS011;6775;49.574;11.170;2023-08-30T06:53:26;14.27;;;12.17;;
13408;SDS011;6775;49.574;11.170;2023-08-30T06:55:57;12.00;;;10.70;;
13408;SDS011;6775;49.574;11.170;2023-08-30T06:58:26;9.67;;;8.67;;
13408;SDS011;6775;49.574;11.170;2023-08-30T07:00:56;10.30;;;9.10;;
13408;SDS011;6775;49.574;11.170;2023-08-30T07:03:25;10.20;;;9.10;;
13408;SDS011;6775;49.574;11.170;2023-08-30T07:05:53;10.23;;;8.70;;
13408;SDS011;6775;49.574;11.170;2023-08-30T07:08:21;12.73;;;9.77;;
13408;SDS011;6775;49.574;11.170;2023-08-30T07:10:50;12.93;;;10.63;;
13408;SDS011;6775;49.574;11.170;2023-08-30T07:13:19;11.07;;;8.93;;
13408;SDS011;6775;49.574;11.170;2023-08-30T07:15:47;14.60;;;12.13;;
13408;SDS011;6775;49.574;11.170;2023-08-30T07:18:15;13.10;;;11.47;;
13408;SDS011;6775;49.574;11.170;2023-08-30T07:20:43;12.10;;;10.40;;
13408;SDS011;6775;49.574;11.170;2023-08-30T07:23:11;9.00;;;8.10;;
13408;SDS011;6775;49.574;11.170;2023-08-30T07:25:39;8.33;;;7.20;;
13408;SDS011;6775;49.574;11.170;2023-08-30T07:28:08;9.80;;;8.47;;
13408;SDS011;6775;49.574;11.170;2023-08-30T07:30:38;9.60;;;8.60;;
13408;SDS011;6775;49.574;11.170;2023-08-30T07:33:06;11.80;;;10.60;;
13408;SDS011;6775;49.574;11.170;2023-08-30T07:35:34;8.47;;;7.63;;
13408;SDS011;6775;49.574;11.170;2023-08-30T07:38:02;8.50;;;7.67;;
13408;SDS011;6775;49.574;11.170;2023-08-30T07:40:30;9.03;;;8.13;;
13408;SDS011;6775;49.574;11.170;2023-08-30T07:42:58;8.70;;;7.90;;
13408;SDS011;6775;49.574;11.170;2023-08-30T07:45:27;9.97;;;8.23;;
13408;SDS011;6775;49.574;11.170;2023-08-30T07:47:55;7.87;;;7.07;;
13408;SDS011;6775;49.574;11.170;2023-08-30T07:50:23;10.70;;;9.67;;
13408;SDS011;6775;49.574;11.170;2023-08-30T07:52:51;11.30;;;9.67;;
13408;SDS011;6775;49.574;11.170;2023-08-30T07:55:20;8.50;;;7.47;;
13408;SDS011;6775;49.574;11.170;2023-08-30T07:57:48;8.90;;;8.00;;
13408;SDS011;6775;49.574;11.170;2023-08-30T08:00:16;12.40;;;11.20;;
13408;SDS011;6775;49.574;11.170;2023-08-30T08:02:45;11.17;;;9.97;;
13408;SDS011;6775;49.574;11.170;2023-08-30T08:05:14;11.33;;;10.23;;
13408;SDS011;6775;49.574;11.170;2023-08-30T08:07:42;11.57;;;10.37;;
13408;SDS011;6775;49.574;11.170;2023-08-30T08:10:10;7.30;;;6.70;;
13408;SDS011;6775;49.574;11.170;2023-08-30T08:12:38;8.30;;;7.50;;
13408;SDS011;6775;49.574;11.170;2023-08-30T08:15:07;10.03;;;8.97;;
13408;SDS011;6775;49.574;11.170;2023-08-30T08:17:35;8.87;;;8.00;;
13408;SDS011;6775;49.574;11.170;2023-08-30T08:20:05;8.10;;;7.07;;
13408;SDS011;6775;49.574;11.170;2023-08-30T08:22:34;9.87;;;8.60;;
13408;SDS011;6775;49.574;11.170;2023-08-30T08:25:02;8.20;;;7.40;;
13408;SDS011;6775;49.574;11.170;2023-08-30T08:27:31;8.53;;;7.83;;
13408;SDS011;6775;49.574;11.170;2023-08-30T08:29:59;11.23;;;9.97;;
13408;SDS011;6775;49.574;11.170;2023-08-30T08:32:27;9.43;;;8.63;;
13408;SDS011;6775;49.574;11.170;2023-08-30T08:34:55;7.97;;;7.17;;
13408;SDS011;6775;49.574;11.170;2023-08-30T08:37:24;9.37;;;8.47;;
13408;SDS011;6775;49.574;11.170;2023-08-30T08:39:52;8.90;;;8.00;;
13408;SDS011;6775;49.574;11.170;2023-08-30T08:42:20;7.90;;;7.20;;
13408;SDS011;6775;49.574;11.170;2023-08-30T08:44:50;8.40;;;7.60;;
13408;SDS011;6775;49.574;11.170;2023-08-30T08:47:20;7.83;;;7.13;;
13408;SDS011;6775;49.574;11.170;2023-08-30T08:49:48;8.73;;;7.77;;
13408;SDS011;6775;49.574;11.170;2023-08-30T08:52:18;10.13;;;8.30;;
13408;SDS011;6775;49.574;11.170;2023-08-30T08:55:01;8.87;;;7.97;;
13408;SDS011;6775;49.574;11.170;2023-08-30T08:57:29;10.00;;;8.80;;
13408;SDS011;6775;49.574;11.170;2023-08-30T08:59:58;10.77;;;8.07;;
13408;SDS011;6775;49.574;11.170;2023-08-30T09:02:26;8.53;;;7.10;;
13408;SDS011;6775;49.574;11.170;2023-08-30T09:04:55;10.47;;;8.10;;
13408;SDS011;6775;49.574;11.170;2023-08-30T09:07:27;6.83;;;6.13;;
13408;SDS011;6775;49.574;11.170;2023-08-30T09:09:56;9.70;;;8.00;;
13408;SDS011;6775;49.574;11.170;2023-08-30T09:12:26;9.23;;;7.50;;
13408;SDS011;6775;49.574;11.170;2023-08-30T09:14:54;6.90;;;6.20;;
13408;SDS011;6775;49.574;11.170;2023-08-30T09:17:23;7.03;;;6.33;;
13408;SDS011;6775;49.574;11.170;2023-08-30T09:20:06;7.57;;;5.87;;
13408;SDS011;6775;49.574;11.170;2023-08-30T09:22:39;6.90;;;5.60;;
13408;SDS011;6775;49.574;11.170;2023-08-30T09:25:10;5.90;;;5.30;;
13408;SDS011;6775;49.574;11.170;2023-08-30T09:27:52;6.70;;;5.23;;
13408;SDS011;6775;49.574;11.170;2023-08-30T09:30:25;8.47;;;6.10;;
13408;SDS011;6775;49.574;11.170;2023-08-30T09:32:53;5.63;;;5.10;;
13408;SDS011;6775;49.574;11.170;2023-08-30T09:35:28;4.93;;;4.30;;
13408;SDS011;6775;49.574;11.170;2023-08-30T09:37:56;5.13;;;3.73;;
13408;SDS011;6775;49.574;11.170;2023-08-30T09:40:24;3.13;;;2.77;;
13408;SDS011;6775;49.574;11.170;2023-08-30T09:42:53;3.10;;;2.80;;
13408;SDS011;6775;49.574;11.170;2023-08-30T09:45:37;2.23;;;2.10;;
13408;SDS011;6775;49.574;11.170;2023-08-30T09:48:06;2.27;;;2.07;;
13408;SDS011;6775;49.574;11.170;2023-08-30T09:50:35;2.70;;;2.50;;
13408;SDS011;6775;49.574;11.170;2023-08-30T09:53:05;3.10;;;2.63;;
13408;SDS011;6775;49.574;11.170;2023-08-30T09:55:37;3.17;;;2.70;;
13408;SDS011;6775;49.574;11.170;2023-08-30T09:58:08;4.10;;;3.73;;
13408;SDS011;6775;49.574;11.170;2023-08-30T10:00:41;3.40;;;3.10;;
13408;SDS011;6775;49.574;11.170;2023-08-30T10:03:10;4.83;;;4.27;;
13408;SDS011;6775;49.574;11.170;2023-08-30T10:05:56;3.67;;;3.37;;
13408;SDS011;6775;49.574;11.170;2023-08-30T10:08:27;3.33;;;3.13;;
13408;SDS011;6775;49.574;11.170;2023-08-30T10:10:57;5.27;;;4.43;;
13408;SDS011;6775;49.574;11.170;2023-08-30T10:13:27;3.57;;;3.27;;
13408;SDS011;6775;49.574;11.170;2023-08-30T10:15:58;5.53;;;5.03;;
13408;SDS011;6775;49.574;11.170;2023-08-30T10:18:31;7.20;;;6.17;;
13408;SDS011;6775;49.574;11.170;2023-08-30T10:21:05;5.47;;;4.80;;
13408;SDS011;6775;49.574;11.170;2023-08-30T10:23:38;5.10;;;4.70;;
13408;SDS011;6775;49.574;11.170;2023-08-30T10:26:08;3.17;;;2.83;;
13408;SDS011;6775;49.574;11.170;2023-08-30T10:28:37;4.83;;;4.33;;
13408;SDS011;6775;49.574;11.170;2023-08-30T10:31:08;4.83;;;4.33;;
13408;SDS011;6775;49.574;11.170;2023-08-30T10:33:46;4.50;;;4.10;;
13408;SDS011;6775;49.574;11.170;2023-08-30T10:36:20;5.43;;;4.33;;
13408;SDS011;6775;49.574;11.170;2023-08-30T10:38:50;5.97;;;4.70;;
13408;SDS011;6775;49.574;11.170;2023-08-30T10:41:19;4.57;;;4.13;;
13408;SDS011;6775;49.574;11.170;2023-08-30T10:43:51;4.93;;;4.53;;
13408;SDS011;6775;49.574;11.170;2023-08-30T10:46:30;4.03;;;3.63;;
13408;SDS011;6775;49.574;11.170;2023-08-30T10:49:09;3.90;;;3.60;;
13408;SDS011;6775;49.574;11.170;2023-08-30T10:51:40;3.83;;;3.53;;
13408;SDS011;6775;49.574;11.170;2023-08-30T10:54:10;6.17;;;5.57;;
13408;SDS011;6775;49.574;11.170;2023-08-30T10:56:46;4.70;;;4.30;;
13408;SDS011;6775;49.574;11.170;2023-08-30T10:59:17;4.00;;;3.70;;
13408;SDS011;6775;49.574;11.170;2023-08-30T11:01:47;3.83;;;3.40;;
13408;SDS011;6775;49.574;11.170;2023-08-30T11:04:18;3.80;;;3.50;;
13408;SDS011;6775;49.574;11.170;2023-08-30T11:06:48;3.80;;;3.17;;
13408;SDS011;6775;49.574;11.170;2023-08-30T11:09:21;4.73;;;4.03;;
13408;SDS011;6775;49.574;11.170;2023-08-30T11:11:51;4.60;;;4.13;;
13408;SDS011;6775;49.574;11.170;2023-08-30T11:14:21;4.67;;;3.50;;
13408;SDS011;6775;49.574;11.170;2023-08-30T11:16:49;3.60;;;3.30;;
13408;SDS011;6775;49.574;11.170;2023-08-30T11:19:17;4.30;;;3.90;;
13408;SDS011;6775;49.574;11.170;2023-08-30T11:21:45;7.00;;;5.37;;
13408;SDS011;6775;49.574;11.170;2023-08-30T11:24:13;6.00;;;5.10;;
13408;SDS011;6775;49.574;11.170;2023-08-30T11:26:42;5.20;;;4.70;;
13408;SDS011;6775;49.574;11.170;2023-08-30T11:29:10;4.10;;;3.60;;
13408;SDS011;6775;49.574;11.170;2023-08-30T11:31:40;4.30;;;3.90;;
13408;SDS011;6775;49.574;11.170;2023-08-30T11:34:11;5.20;;;4.33;;
13408;SDS011;6775;49.574;11.170;2023-08-30T11:36:39;5.60;;;4.70;;
13408;SDS011;6775;49.574;11.170;2023-08-30T11:39:08;7.17;;;4.63;;
13408;SDS011;6775;49.574;11.170;2023-08-30T11:41:37;5.77;;;5.17;;
13408;SDS011;6775;49.574;11.170;2023-08-30T11:44:06;5.03;;;4.63;;
13408;SDS011;6775;49.574;11.170;2023-08-30T11:46:35;4.47;;;4.17;;
13408;SDS011;6775;49.574;11.170;2023-08-30T11:49:04;4.47;;;4.07;;
13408;SDS011;6775;49.574;11.170;2023-08-30T11:51:32;5.20;;;4.47;;
13408;SDS011;6775;49.574;11.170;2023-08-30T11:54:00;5.07;;;4.57;;
13408;SDS011;6775;49.574;11.170;2023-08-30T11:56:29;4.87;;;4.20;;
13408;SDS011;6775;49.574;11.170;2023-08-30T11:58:58;4.70;;;4.30;;
13408;SDS011;6775;49.574;11.170;2023-08-30T12:01:26;6.10;;;5.50;;
13408;SDS011;6775;49.574;11.170;2023-08-30T12:03:54;5.93;;;5.03;;
13408;SDS011;6775;49.574;11.170;2023-08-30T12:06:24;6.93;;;5.63;;
13408;SDS011;6775;49.574;11.170;2023-08-30T12:08:57;6.70;;;6.10;;
13408;SDS011;6775;49.574;11.170;2023-08-30T12:11:25;5.73;;;5.13;;
13408;SDS011;6775;49.574;11.170;2023-08-30T12:14:01;4.20;;;3.70;;
13408;SDS011;6775;49.574;11.170;2023-08-30T12:16:29;4.03;;;3.73;;
13408;SDS011;6775;49.574;11.170;2023-08-30T12:19:06;4.43;;;4.03;;
13408;SDS011;6775;49.574;11.170;2023-08-30T12:21:41;4.40;;;4.00;;
13408;SDS011;6775;49.574;11.170;2023-08-30T12:24:09;3.90;;;3.50;;
13408;SDS011;6775;49.574;11.170;2023-08-30T12:26:38;3.97;;;3.67;;
13408;SDS011;6775;49.574;11.170;2023-08-30T12:29:06;3.90;;;3.60;;
13408;SDS011;6775;49.574;11.170;2023-08-30T12:31:33;3.80;;;3.50;;
13408;SDS011;6775;49.574;11.170;2023-08-30T12:34:02;3.80;;;3.50;;
13408;SDS011;6775;49.574;11.170;2023-08-30T12:36:30;3.60;;;3.30;;
13408;SDS011;6775;49.574;11.170;2023-08-30T12:38:59;3.43;;;2.93;;
13408;SDS011;6775;49.574;11.170;2023-08-30T12:41:28;2.90;;;2.70;;
13408;SDS011;6775;49.574;11.170;2023-08-30T12:43:56;3.47;;;3.17;;
13408;SDS011;6775;49.574;11.170;2023-08-30T12:46:24;3.53;;;3.23;;
13408;SDS011;6775;49.574;11.170;2023-08-30T12:48:52;3.27;;;2.97;;
13408;SDS011;6775;49.574;11.170;2023-08-30T12:51:23;2.93;;;2.60;;
13408;SDS011;6775;49.574;11.170;2023-08-30T12:53:51;2.90;;;2.70;;
13408;SDS011;6775;49.574;11.170;2023-08-30T12:56:20;3.23;;;2.93;;
13408;SDS011;6775;49.574;11.170;2023-08-30T12:58:48;3.23;;;2.93;;
13408;SDS011;6775;49.574;11.170;2023-08-30T13:01:17;3.03;;;2.73;;
13408;SDS011;6775;49.574;11.170;2023-08-30T13:03:45;2.67;;;2.47;;
13408;SDS011;6775;49.574;11.170;2023-08-30T13:06:13;3.50;;;3.20;;
13408;SDS011;6775;49.574;11.170;2023-08-30T13:08:41;4.77;;;4.30;;
13408;SDS011;6775;49.574;11.170;2023-08-30T13:11:09;3.97;;;3.20;;
13408;SDS011;6775;49.574;11.170;2023-08-30T13:13:38;3.10;;;2.90;;
13408;SDS011;6775;49.574;11.170;2023-08-30T13:16:06;3.57;;;3.27;;
13408;SDS011;6775;49.574;11.170;2023-08-30T13:18:34;5.40;;;4.70;;
13408;SDS011;6775;49.574;11.170;2023-08-30T13:21:02;5.63;;;3.90;;
13408;SDS011;6775;49.574;11.170;2023-08-30T13:23:31;4.23;;;3.83;;
13408;SDS011;6775;49.574;11.170;2023-08-30T13:25:59;4.27;;;3.73;;
13408;SDS011;6775;49.574;11.170;2023-08-30T13:28:27;3.70;;;3.40;;
13408;SDS011;6775;49.574;11.170;2023-08-30T13:30:56;3.80;;;3.50;;
13408;SDS011;6775;49.574;11.170;2023-08-30T13:33:26;3.87;;;3.53;;
13408;SDS011;6775;49.574;11.170;2023-08-30T13:35:54;4.27;;;3.87;;
13408;SDS011;6775;49.574;11.170;2023-08-30T13:38:22;3.43;;;3.13;;
13408;SDS011;6775;49.574;11.170;2023-08-30T13:40:57;3.90;;;3.60;;
13408;SDS011;6775;49.574;11.170;2023-08-30T13:43:26;5.83;;;4.90;;
13408;SDS011;6775;49.574;11.170;2023-08-30T13:45:59;4.17;;;3.87;;
13408;SDS011;6775;49.574;11.170;2023-08-30T13:48:27;5.90;;;5.40;;
13408;SDS011;6775;49.574;11.170;2023-08-30T13:50:55;5.40;;;4.90;;
13408;SDS011;6775;49.574;11.170;2023-08-30T13:53:23;5.67;;;5.07;;
13408;SDS011;6775;49.574;11.170;2023-08-30T13:55:52;5.43;;;4.93;;
13408;SDS011;6775;49.574;11.170;2023-08-30T13:58:20;4.50;;;4.10;;
13408;SDS011;6775;49.574;11.170;2023-08-30T14:00:48;5.47;;;4.97;;
13408;SDS011;6775;49.574;11.170;2023-08-30T14:03:17;4.50;;;4.10;;
13408;SDS011;6775;49.574;11.170;2023-08-30T14:05:45;6.53;;;5.93;;
13408;SDS011;6775;49.574;11.170;2023-08-30T14:08:13;5.80;;;4.80;;
13408;SDS011;6775;49.574;11.170;2023-08-30T14:10:41;4.43;;;4.03;;
13408;SDS011;6775;49.574;11.170;2023-08-30T14:13:09;5.13;;;4.63;;
13408;SDS011;6775;49.574;11.170;2023-08-30T14:15:38;5.70;;;5.20;;
13408;SDS011;6775;49.574;11.170;2023-08-30T14:18:06;4.27;;;3.87;;
13408;SDS011;6775;49.574;11.170;2023-08-30T14:20:36;4.00;;;3.70;;
13408;SDS011;6775;49.574;11.170;2023-08-30T14:23:04;4.00;;;3.67;;
13408;SDS011;6775;49.574;11.170;2023-08-30T14:25:32;5.47;;;5.03;;
13408;SDS011;6775;49.574;11.170;2023-08-30T14:28:00;6.03;;;5.43;;
13408;SDS011;6775;49.574;11.170;2023-08-30T14:30:30;5.40;;;4.90;;
13408;SDS011;6775;49.574;11.170;2023-08-30T14:32:57;5.87;;;5.27;;
13408;SDS011;6775;49.574;11.170;2023-08-30T14:35:25;4.00;;;3.70;;
13408;SDS011;6775;49.574;11.170;2023-08-30T14:37:56;4.03;;;3.70;;
13408;SDS011;6775;49.574;11.170;2023-08-30T14:40:25;5.27;;;4.77;;
13408;SDS011;6775;49.574;11.170;2023-08-30T14:42:53;4.50;;;4.10;;
13408;SDS011;6775;49.574;11.170;2023-08-30T14:45:21;4.13;;;3.83;;
13408;SDS011;6775;49.574;11.170;2023-08-30T14:47:49;3.77;;;3.47;;
13408;SDS011;6775;49.574;11.170;2023-08-30T14:50:18;4.27;;;3.80;;
13408;SDS011;6775;49.574;11.170;2023-08-30T14:52:46;3.97;;;3.60;;
13408;SDS011;6775;49.574;11.170;2023-08-30T14:55:15;6.13;;;5.60;;
13408;SDS011;6775;49.574;11.170;2023-08-30T14:57:43;5.40;;;4.90;;